sensor_id;sensor_type;location;lat;lon;timestamp;P1;durP1;ratioP1;P2;durP2;ratioP2
70663;SDS011;58237;57.996;56.290;2022-11-11T00:01:35;2.45;;;0.80;;
70663;SDS011;58237;57.996;56.290;2022-11-11T00:04:01;3.90;;;1.02;;
70663;SDS011;58237;57.996;56.290;2022-11-11T00:06:26;2.60;;;1.00;;
70663;SDS011;58237;57.996;56.290;2022-11-11T00:08:51;3.13;;;1.13;;
70663;SDS011;58237;57.996;56.290;2022-11-11T00:11:17;2.10;;;0.80;;
70663;SDS011;58237;57.996;56.290;2022-11-11T00:13:42;3.45;;;1.00;;
70663;SDS011;58237;57.996;56.290;2022-11-11T00:16:09;5.55;;;0.90;;
70663;SDS011;58237;57.996;56.290;2022-11-11T00:18:35;2.90;;;0.85;;
70663;SDS011;58237;57.996;56.290;2022-11-11T00:21:00;2.17;;;0.80;;
70663;SDS011;58237;57.996;56.290;2022-11-11T00:23:26;3.15;;;0.70;;
70663;SDS011;58237;57.996;56.290;2022-11-11T00:25:52;2.55;;;0.82;;
70663;SDS011;58237;57.996;56.290;2022-11-11T00:28:18;3.42;;;0.88;;
70663;SDS011;58237;57.996;56.290;2022-11-11T00:30:43;2.38;;;0.80;;
70663;SDS011;58237;57.996;56.290;2022-11-11T00:33:09;1.13;;;0.57;;
70663;SDS011;58237;57.996;56.290;2022-11-11T00:35:34;1.60;;;0.70;;
70663;SDS011;58237;57.996;56.290;2022-11-11T00:38:08;2.20;;;0.60;;
70663;SDS011;58237;57.996;56.290;2022-11-11T00:40:34;3.25;;;0.98;;
70663;SDS011;58237;57.996;56.290;2022-11-11T00:42:59;2.45;;;1.00;;
70663;SDS011;58237;57.996;56.290;2022-11-11T00:45:24;2.85;;;0.80;;
70663;SDS011;58237;57.996;56.290;2022-11-11T00:47:50;4.00;;;1.15;;
70663;SDS011;58237;57.996;56.290;2022-11-11T00:50:25;2.80;;;1.05;;
70663;SDS011;58237;57.996;56.290;2022-11-11T00:52:51;3.97;;;1.00;;
70663;SDS011;58237;57.996;56.290;2022-11-11T00:55:16;3.75;;;1.10;;
70663;SDS011;58237;57.996;56.290;2022-11-11T00:57:42;4.30;;;1.27;;
70663;SDS011;58237;57.996;56.290;2022-11-11T01:00:11;3.70;;;1.38;;
70663;SDS011;58237;57.996;56.290;2022-11-11T01:02:37;4.43;;;1.70;;
70663;SDS011;58237;57.996;56.290;2022-11-11T01:05:02;5.45;;;1.85;;
70663;SDS011;58237;57.996;56.290;2022-11-11T01:07:29;5.45;;;1.65;;
70663;SDS011;58237;57.996;56.290;2022-11-11T01:09:55;4.68;;;1.42;;
70663;SDS011;58237;57.996;56.290;2022-11-11T01:12:20;6.57;;;2.13;;
70663;SDS011;58237;57.996;56.290;2022-11-11T01:14:45;6.95;;;2.17;;
70663;SDS011;58237;57.996;56.290;2022-11-11T01:17:11;5.97;;;1.75;;
70663;SDS011;58237;57.996;56.290;2022-11-11T01:19:36;8.27;;;2.95;;
70663;SDS011;58237;57.996;56.290;2022-11-11T01:22:01;8.13;;;3.42;;
70663;SDS011;58237;57.996;56.290;2022-11-11T01:24:27;7.72;;;3.03;;
70663;SDS011;58237;57.996;56.290;2022-11-11T01:26:52;5.78;;;2.28;;
70663;SDS011;58237;57.996;56.290;2022-11-11T01:29:18;7.05;;;2.38;;
70663;SDS011;58237;57.996;56.290;2022-11-11T01:31:43;4.60;;;1.67;;
70663;SDS011;58237;57.996;56.290;2022-11-11T01:34:08;5.85;;;2.40;;
70663;SDS011;58237;57.996;56.290;2022-11-11T01:36:34;5.97;;;2.10;;
70663;SDS011;58237;57.996;56.290;2022-11-11T01:38:59;4.68;;;1.63;;
70663;SDS011;58237;57.996;56.290;2022-11-11T01:41:26;5.75;;;2.20;;
70663;SDS011;58237;57.996;56.290;2022-11-11T01:43:52;5.38;;;2.20;;
70663;SDS011;58237;57.996;56.290;2022-11-11T01:46:34;6.70;;;2.10;;
70663;SDS011;58237;57.996;56.290;2022-11-11T01:51:41;5.68;;;2.08;;
70663;SDS011;58237;57.996;56.290;2022-11-11T01:54:11;5.15;;;2.08;;
70663;SDS011;58237;57.996;56.290;2022-11-11T01:56:38;7.40;;;2.80;;
70663;SDS011;58237;57.996;56.290;2022-11-11T01:59:05;7.97;;;3.10;;
70663;SDS011;58237;57.996;56.290;2022-11-11T02:01:32;5.20;;;2.10;;
70663;SDS011;58237;57.996;56.290;2022-11-11T02:03:59;7.07;;;2.53;;
70663;SDS011;58237;57.996;56.290;2022-11-11T02:06:25;6.25;;;2.53;;
70663;SDS011;58237;57.996;56.290;2022-11-11T02:08:52;5.60;;;2.30;;
70663;SDS011;58237;57.996;56.290;2022-11-11T02:11:17;6.28;;;2.25;;
70663;SDS011;58237;57.996;56.290;2022-11-11T02:13:44;6.50;;;2.17;;
70663;SDS011;58237;57.996;56.290;2022-11-11T02:16:10;5.80;;;1.90;;
70663;SDS011;58237;57.996;56.290;2022-11-11T02:18:35;6.18;;;2.30;;
70663;SDS011;58237;57.996;56.290;2022-11-11T02:21:01;5.30;;;2.10;;
70663;SDS011;58237;57.996;56.290;2022-11-11T02:25:54;7.82;;;3.03;;
70663;SDS011;58237;57.996;56.290;2022-11-11T02:28:21;6.07;;;2.30;;
70663;SDS011;58237;57.996;56.290;2022-11-11T02:30:47;7.47;;;2.75;;
70663;SDS011;58237;57.996;56.290;2022-11-11T02:33:12;7.82;;;2.53;;
70663;SDS011;58237;57.996;56.290;2022-11-11T02:35:40;7.07;;;2.63;;
70663;SDS011;58237;57.996;56.290;2022-11-11T02:38:07;7.18;;;2.60;;
70663;SDS011;58237;57.996;56.290;2022-11-11T02:40:35;7.22;;;2.50;;
70663;SDS011;58237;57.996;56.290;2022-11-11T02:43:01;5.90;;;2.13;;
70663;SDS011;58237;57.996;56.290;2022-11-11T02:45:26;5.65;;;2.10;;
70663;SDS011;58237;57.996;56.290;2022-11-11T02:47:51;6.20;;;2.30;;
70663;SDS011;58237;57.996;56.290;2022-11-11T02:50:17;6.05;;;1.95;;
70663;SDS011;58237;57.996;56.290;2022-11-11T02:52:42;5.43;;;2.28;;
70663;SDS011;58237;57.996;56.290;2022-11-11T02:55:08;6.85;;;2.20;;
70663;SDS011;58237;57.996;56.290;2022-11-11T02:57:33;5.72;;;2.30;;
70663;SDS011;58237;57.996;56.290;2022-11-11T02:59:59;7.20;;;2.40;;
70663;SDS011;58237;57.996;56.290;2022-11-11T03:02:24;7.65;;;3.38;;
70663;SDS011;58237;57.996;56.290;2022-11-11T03:04:50;6.03;;;2.67;;
70663;SDS011;58237;57.996;56.290;2022-11-11T03:07:15;6.00;;;2.47;;
70663;SDS011;58237;57.996;56.290;2022-11-11T03:09:40;6.25;;;2.40;;
70663;SDS011;58237;57.996;56.290;2022-11-11T03:12:06;6.35;;;2.10;;
70663;SDS011;58237;57.996;56.290;2022-11-11T03:14:31;5.60;;;2.10;;
70663;SDS011;58237;57.996;56.290;2022-11-11T03:16:56;4.80;;;1.77;;
70663;SDS011;58237;57.996;56.290;2022-11-11T03:19:22;6.55;;;2.53;;
70663;SDS011;58237;57.996;56.290;2022-11-11T03:21:47;4.43;;;2.22;;
70663;SDS011;58237;57.996;56.290;2022-11-11T03:24:12;5.20;;;1.92;;
70663;SDS011;58237;57.996;56.290;2022-11-11T03:26:38;3.75;;;1.40;;
70663;SDS011;58237;57.996;56.290;2022-11-11T03:29:03;5.95;;;2.15;;
70663;SDS011;58237;57.996;56.290;2022-11-11T03:31:29;6.03;;;2.50;;
70663;SDS011;58237;57.996;56.290;2022-11-11T03:33:54;5.40;;;2.30;;
70663;SDS011;58237;57.996;56.290;2022-11-11T03:36:19;6.00;;;2.53;;
70663;SDS011;58237;57.996;56.290;2022-11-11T03:38:45;4.47;;;1.98;;
70663;SDS011;58237;57.996;56.290;2022-11-11T03:41:10;3.92;;;1.83;;
70663;SDS011;58237;57.996;56.290;2022-11-11T03:43:35;6.97;;;2.22;;
70663;SDS011;58237;57.996;56.290;2022-11-11T03:46:01;6.18;;;2.60;;
70663;SDS011;58237;57.996;56.290;2022-11-11T03:48:28;5.13;;;2.17;;
70663;SDS011;58237;57.996;56.290;2022-11-11T03:50:54;6.82;;;3.47;;
70663;SDS011;58237;57.996;56.290;2022-11-11T03:53:20;7.80;;;2.88;;
70663;SDS011;58237;57.996;56.290;2022-11-11T03:55:45;5.40;;;2.35;;
70663;SDS011;58237;57.996;56.290;2022-11-11T03:58:11;5.60;;;2.72;;
70663;SDS011;58237;57.996;56.290;2022-11-11T04:00:36;7.40;;;2.60;;
70663;SDS011;58237;57.996;56.290;2022-11-11T04:05:30;6.60;;;2.20;;
70663;SDS011;58237;57.996;56.290;2022-11-11T04:07:55;5.72;;;2.60;;
70663;SDS011;58237;57.996;56.290;2022-11-11T04:10:21;8.63;;;3.65;;
70663;SDS011;58237;57.996;56.290;2022-11-11T04:12:46;6.63;;;2.70;;
70663;SDS011;58237;57.996;56.290;2022-11-11T04:15:11;5.65;;;2.40;;
70663;SDS011;58237;57.996;56.290;2022-11-11T04:17:37;7.35;;;2.50;;
70663;SDS011;58237;57.996;56.290;2022-11-11T04:20:02;6.55;;;2.63;;
70663;SDS011;58237;57.996;56.290;2022-11-11T04:22:29;7.65;;;2.20;;
70663;SDS011;58237;57.996;56.290;2022-11-11T04:24:54;7.60;;;3.72;;
70663;SDS011;58237;57.996;56.290;2022-11-11T04:27:19;12.25;;;4.03;;
70663;SDS011;58237;57.996;56.290;2022-11-11T04:29:45;7.15;;;2.53;;
70663;SDS011;58237;57.996;56.290;2022-11-11T04:32:11;6.50;;;3.05;;
70663;SDS011;58237;57.996;56.290;2022-11-11T04:34:36;7.25;;;2.97;;
70663;SDS011;58237;57.996;56.290;2022-11-11T04:37:02;8.88;;;3.13;;
70663;SDS011;58237;57.996;56.290;2022-11-11T04:39:27;6.85;;;2.75;;
70663;SDS011;58237;57.996;56.290;2022-11-11T04:41:52;10.63;;;4.55;;
70663;SDS011;58237;57.996;56.290;2022-11-11T04:44:18;8.65;;;3.47;;
70663;SDS011;58237;57.996;56.290;2022-11-11T04:46:43;7.38;;;2.97;;
70663;SDS011;58237;57.996;56.290;2022-11-11T04:49:08;7.40;;;3.17;;
70663;SDS011;58237;57.996;56.290;2022-11-11T04:51:34;7.88;;;3.80;;
70663;SDS011;58237;57.996;56.290;2022-11-11T04:53:59;8.73;;;3.60;;
70663;SDS011;58237;57.996;56.290;2022-11-11T04:56:24;10.65;;;4.22;;
70663;SDS011;58237;57.996;56.290;2022-11-11T04:58:50;9.65;;;3.92;;
70663;SDS011;58237;57.996;56.290;2022-11-11T05:01:15;10.27;;;3.95;;
70663;SDS011;58237;57.996;56.290;2022-11-11T05:03:40;7.45;;;2.97;;
70663;SDS011;58237;57.996;56.290;2022-11-11T05:06:06;9.88;;;4.40;;
70663;SDS011;58237;57.996;56.290;2022-11-11T05:08:32;8.70;;;4.35;;
70663;SDS011;58237;57.996;56.290;2022-11-11T05:10:57;11.73;;;5.93;;
70663;SDS011;58237;57.996;56.290;2022-11-11T05:13:22;8.45;;;3.67;;
70663;SDS011;58237;57.996;56.290;2022-11-11T05:15:48;9.10;;;4.25;;
70663;SDS011;58237;57.996;56.290;2022-11-11T05:18:13;10.68;;;4.55;;
70663;SDS011;58237;57.996;56.290;2022-11-11T05:20:39;9.93;;;4.20;;
70663;SDS011;58237;57.996;56.290;2022-11-11T05:23:04;7.28;;;3.30;;
70663;SDS011;58237;57.996;56.290;2022-11-11T05:25:29;8.07;;;3.05;;
70663;SDS011;58237;57.996;56.290;2022-11-11T05:27:56;8.75;;;2.90;;
70663;SDS011;58237;57.996;56.290;2022-11-11T05:30:22;6.82;;;2.78;;
70663;SDS011;58237;57.996;56.290;2022-11-11T05:32:48;9.57;;;4.05;;
70663;SDS011;58237;57.996;56.290;2022-11-11T05:35:14;10.32;;;4.60;;
70663;SDS011;58237;57.996;56.290;2022-11-11T05:37:39;10.35;;;4.38;;
70663;SDS011;58237;57.996;56.290;2022-11-11T05:40:05;10.65;;;3.97;;
70663;SDS011;58237;57.996;56.290;2022-11-11T05:42:31;10.23;;;3.90;;
70663;SDS011;58237;57.996;56.290;2022-11-11T05:44:56;9.20;;;3.67;;
70663;SDS011;58237;57.996;56.290;2022-11-11T05:47:24;8.75;;;3.40;;
70663;SDS011;58237;57.996;56.290;2022-11-11T05:49:50;8.23;;;3.58;;
70663;SDS011;58237;57.996;56.290;2022-11-11T05:52:15;6.75;;;3.00;;
70663;SDS011;58237;57.996;56.290;2022-11-11T05:54:41;9.18;;;4.13;;
70663;SDS011;58237;57.996;56.290;2022-11-11T05:57:06;9.13;;;5.07;;
70663;SDS011;58237;57.996;56.290;2022-11-11T05:59:32;13.05;;;4.80;;
70663;SDS011;58237;57.996;56.290;2022-11-11T06:01:57;9.00;;;3.55;;
70663;SDS011;58237;57.996;56.290;2022-11-11T06:04:23;9.90;;;4.00;;
70663;SDS011;58237;57.996;56.290;2022-11-11T06:06:48;8.52;;;3.22;;
70663;SDS011;58237;57.996;56.290;2022-11-11T06:09:13;9.18;;;3.67;;
70663;SDS011;58237;57.996;56.290;2022-11-11T06:11:39;10.50;;;4.35;;
70663;SDS011;58237;57.996;56.290;2022-11-11T06:14:04;9.48;;;3.55;;
70663;SDS011;58237;57.996;56.290;2022-11-11T06:16:30;9.50;;;3.25;;
70663;SDS011;58237;57.996;56.290;2022-11-11T06:18:55;10.80;;;4.63;;
70663;SDS011;58237;57.996;56.290;2022-11-11T06:21:21;10.55;;;4.20;;
70663;SDS011;58237;57.996;56.290;2022-11-11T06:23:46;12.48;;;4.15;;
70663;SDS011;58237;57.996;56.290;2022-11-11T06:26:12;11.07;;;4.00;;
70663;SDS011;58237;57.996;56.290;2022-11-11T06:28:37;10.30;;;3.70;;
70663;SDS011;58237;57.996;56.290;2022-11-11T06:31:03;9.82;;;3.75;;
70663;SDS011;58237;57.996;56.290;2022-11-11T06:33:28;8.27;;;3.83;;
70663;SDS011;58237;57.996;56.290;2022-11-11T06:35:54;10.18;;;3.55;;
70663;SDS011;58237;57.996;56.290;2022-11-11T06:38:19;10.23;;;4.22;;
70663;SDS011;58237;57.996;56.290;2022-11-11T06:40:44;11.13;;;5.40;;
70663;SDS011;58237;57.996;56.290;2022-11-11T06:43:10;11.00;;;4.43;;
70663;SDS011;58237;57.996;56.290;2022-11-11T06:45:36;10.02;;;4.13;;
70663;SDS011;58237;57.996;56.290;2022-11-11T06:48:02;9.93;;;4.25;;
70663;SDS011;58237;57.996;56.290;2022-11-11T06:50:27;9.85;;;4.75;;
70663;SDS011;58237;57.996;56.290;2022-11-11T06:52:53;9.85;;;3.80;;
70663;SDS011;58237;57.996;56.290;2022-11-11T06:55:18;10.15;;;4.15;;
70663;SDS011;58237;57.996;56.290;2022-11-11T06:57:44;9.82;;;3.75;;
70663;SDS011;58237;57.996;56.290;2022-11-11T07:00:09;8.85;;;4.78;;
70663;SDS011;58237;57.996;56.290;2022-11-11T07:02:35;8.68;;;3.42;;
70663;SDS011;58237;57.996;56.290;2022-11-11T07:05:00;9.55;;;3.80;;
70663;SDS011;58237;57.996;56.290;2022-11-11T07:07:25;10.63;;;4.57;;
70663;SDS011;58237;57.996;56.290;2022-11-11T07:09:51;9.43;;;4.38;;
70663;SDS011;58237;57.996;56.290;2022-11-11T07:12:16;12.73;;;4.80;;
70663;SDS011;58237;57.996;56.290;2022-11-11T07:14:42;12.30;;;4.22;;
70663;SDS011;58237;57.996;56.290;2022-11-11T07:17:07;11.00;;;4.82;;
70663;SDS011;58237;57.996;56.290;2022-11-11T07:19:33;10.07;;;4.25;;
70663;SDS011;58237;57.996;56.290;2022-11-11T07:21:58;10.55;;;4.22;;
70663;SDS011;58237;57.996;56.290;2022-11-11T07:24:23;9.77;;;3.83;;
70663;SDS011;58237;57.996;56.290;2022-11-11T07:26:49;9.30;;;3.83;;
70663;SDS011;58237;57.996;56.290;2022-11-11T07:29:14;12.20;;;4.65;;
70663;SDS011;58237;57.996;56.290;2022-11-11T07:31:40;11.35;;;4.47;;
70663;SDS011;58237;57.996;56.290;2022-11-11T07:34:05;11.80;;;3.85;;
70663;SDS011;58237;57.996;56.290;2022-11-11T07:36:30;8.85;;;4.00;;
70663;SDS011;58237;57.996;56.290;2022-11-11T07:38:56;8.80;;;3.75;;
70663;SDS011;58237;57.996;56.290;2022-11-11T07:41:21;7.45;;;3.20;;
70663;SDS011;58237;57.996;56.290;2022-11-11T07:43:47;8.00;;;3.58;;
70663;SDS011;58237;57.996;56.290;2022-11-11T07:46:12;7.95;;;3.58;;
70663;SDS011;58237;57.996;56.290;2022-11-11T07:48:37;9.35;;;3.45;;
70663;SDS011;58237;57.996;56.290;2022-11-11T07:51:03;7.28;;;3.25;;
70663;SDS011;58237;57.996;56.290;2022-11-11T07:53:28;9.57;;;3.60;;
70663;SDS011;58237;57.996;56.290;2022-11-11T07:55:54;8.65;;;3.85;;
70663;SDS011;58237;57.996;56.290;2022-11-11T07:58:19;7.88;;;3.40;;
70663;SDS011;58237;57.996;56.290;2022-11-11T08:00:44;7.18;;;2.70;;
70663;SDS011;58237;57.996;56.290;2022-11-11T08:03:10;9.60;;;3.40;;
70663;SDS011;58237;57.996;56.290;2022-11-11T08:05:35;8.68;;;3.58;;
70663;SDS011;58237;57.996;56.290;2022-11-11T08:08:01;8.18;;;3.25;;
70663;SDS011;58237;57.996;56.290;2022-11-11T08:10:27;8.13;;;2.80;;
70663;SDS011;58237;57.996;56.290;2022-11-11T08:12:52;6.57;;;3.13;;
70663;SDS011;58237;57.996;56.290;2022-11-11T08:15:18;7.40;;;2.85;;
70663;SDS011;58237;57.996;56.290;2022-11-11T08:17:43;6.68;;;2.85;;
70663;SDS011;58237;57.996;56.290;2022-11-11T08:20:09;9.45;;;3.70;;
70663;SDS011;58237;57.996;56.290;2022-11-11T08:22:35;8.73;;;3.60;;
70663;SDS011;58237;57.996;56.290;2022-11-11T08:25:01;8.13;;;3.53;;
70663;SDS011;58237;57.996;56.290;2022-11-11T08:27:27;8.70;;;3.35;;
70663;SDS011;58237;57.996;56.290;2022-11-11T08:29:52;9.27;;;4.38;;
70663;SDS011;58237;57.996;56.290;2022-11-11T08:32:17;9.93;;;3.85;;
70663;SDS011;58237;57.996;56.290;2022-11-11T08:34:43;7.07;;;3.08;;
70663;SDS011;58237;57.996;56.290;2022-11-11T08:37:08;8.98;;;3.40;;
70663;SDS011;58237;57.996;56.290;2022-11-11T08:39:33;9.57;;;4.32;;
70663;SDS011;58237;57.996;56.290;2022-11-11T08:41:59;9.68;;;4.28;;
70663;SDS011;58237;57.996;56.290;2022-11-11T08:44:24;8.38;;;3.65;;
70663;SDS011;58237;57.996;56.290;2022-11-11T08:46:49;8.20;;;3.08;;
70663;SDS011;58237;57.996;56.290;2022-11-11T08:49:15;9.60;;;4.00;;
70663;SDS011;58237;57.996;56.290;2022-11-11T08:51:40;7.25;;;3.20;;
70663;SDS011;58237;57.996;56.290;2022-11-11T08:54:05;7.50;;;3.30;;
70663;SDS011;58237;57.996;56.290;2022-11-11T08:56:31;11.38;;;4.28;;
70663;SDS011;58237;57.996;56.290;2022-11-11T08:58:56;7.45;;;3.15;;
70663;SDS011;58237;57.996;56.290;2022-11-11T09:01:21;7.20;;;3.38;;
70663;SDS011;58237;57.996;56.290;2022-11-11T09:03:47;7.95;;;3.38;;
70663;SDS011;58237;57.996;56.290;2022-11-11T09:06:12;8.27;;;2.88;;
70663;SDS011;58237;57.996;56.290;2022-11-11T09:08:40;7.60;;;3.35;;
70663;SDS011;58237;57.996;56.290;2022-11-11T09:11:05;11.68;;;4.15;;
70663;SDS011;58237;57.996;56.290;2022-11-11T09:13:30;9.68;;;3.58;;
70663;SDS011;58237;57.996;56.290;2022-11-11T09:15:56;8.23;;;3.10;;
70663;SDS011;58237;57.996;56.290;2022-11-11T09:18:21;5.88;;;2.50;;
70663;SDS011;58237;57.996;56.290;2022-11-11T09:20:46;6.72;;;2.85;;
70663;SDS011;58237;57.996;56.290;2022-11-11T09:23:12;7.00;;;2.90;;
70663;SDS011;58237;57.996;56.290;2022-11-11T09:25:37;8.85;;;4.30;;
70663;SDS011;58237;57.996;56.290;2022-11-11T09:28:02;8.18;;;3.70;;
70663;SDS011;58237;57.996;56.290;2022-11-11T09:30:28;8.30;;;3.30;;
70663;SDS011;58237;57.996;56.290;2022-11-11T09:32:53;9.57;;;4.40;;
70663;SDS011;58237;57.996;56.290;2022-11-11T09:35:19;8.05;;;3.30;;
70663;SDS011;58237;57.996;56.290;2022-11-11T09:37:54;7.75;;;3.45;;
70663;SDS011;58237;57.996;56.290;2022-11-11T09:40:21;8.32;;;3.90;;
70663;SDS011;58237;57.996;56.290;2022-11-11T09:42:53;8.82;;;3.83;;
70663;SDS011;58237;57.996;56.290;2022-11-11T09:48:07;9.55;;;3.15;;
70663;SDS011;58237;57.996;56.290;2022-11-11T09:50:34;9.05;;;3.85;;
70663;SDS011;58237;57.996;56.290;2022-11-11T09:53:14;9.27;;;3.17;;
70663;SDS011;58237;57.996;56.290;2022-11-11T09:55:43;7.60;;;2.92;;
70663;SDS011;58237;57.996;56.290;2022-11-11T10:00:44;8.73;;;3.65;;
70663;SDS011;58237;57.996;56.290;2022-11-11T10:03:17;7.80;;;3.20;;
70663;SDS011;58237;57.996;56.290;2022-11-11T10:08:23;7.57;;;2.88;;
70663;SDS011;58237;57.996;56.290;2022-11-11T10:10:50;6.32;;;2.80;;
70663;SDS011;58237;57.996;56.290;2022-11-11T10:13:18;8.60;;;3.33;;
70663;SDS011;58237;57.996;56.290;2022-11-11T10:15:57;12.90;;;4.13;;
70663;SDS011;58237;57.996;56.290;2022-11-11T10:18:28;8.20;;;3.53;;
70663;SDS011;58237;57.996;56.290;2022-11-11T10:20:54;9.00;;;3.42;;
70663;SDS011;58237;57.996;56.290;2022-11-11T10:23:23;6.78;;;2.88;;
70663;SDS011;58237;57.996;56.290;2022-11-11T10:25:53;7.15;;;3.10;;
70663;SDS011;58237;57.996;56.290;2022-11-11T10:28:20;8.98;;;3.15;;
70663;SDS011;58237;57.996;56.290;2022-11-11T10:30:46;8.25;;;3.15;;
70663;SDS011;58237;57.996;56.290;2022-11-11T10:33:19;7.07;;;2.88;;
70663;SDS011;58237;57.996;56.290;2022-11-11T10:35:48;7.10;;;2.90;;
70663;SDS011;58237;57.996;56.290;2022-11-11T10:41:00;8.07;;;3.40;;
70663;SDS011;58237;57.996;56.290;2022-11-11T10:43:28;8.13;;;3.38;;
70663;SDS011;58237;57.996;56.290;2022-11-11T10:46:03;6.03;;;2.65;;
70663;SDS011;58237;57.996;56.290;2022-11-11T10:48:37;8.27;;;3.22;;
70663;SDS011;58237;57.996;56.290;2022-11-11T10:51:03;7.57;;;3.72;;
70663;SDS011;58237;57.996;56.290;2022-11-11T10:56:16;8.65;;;3.42;;
70663;SDS011;58237;57.996;56.290;2022-11-11T11:01:13;7.15;;;2.80;;
70663;SDS011;58237;57.996;56.290;2022-11-11T11:03:41;6.60;;;2.80;;
70663;SDS011;58237;57.996;56.290;2022-11-11T11:06:09;6.47;;;2.70;;
70663;SDS011;58237;57.996;56.290;2022-11-11T11:08:44;6.80;;;2.70;;
70663;SDS011;58237;57.996;56.290;2022-11-11T11:11:14;6.53;;;2.90;;
70663;SDS011;58237;57.996;56.290;2022-11-11T11:13:44;7.70;;;2.78;;
70663;SDS011;58237;57.996;56.290;2022-11-11T11:24:19;6.63;;;2.65;;
70663;SDS011;58237;57.996;56.290;2022-11-11T11:26:46;7.30;;;3.30;;
70663;SDS011;58237;57.996;56.290;2022-11-11T11:29:11;7.68;;;3.00;;
70663;SDS011;58237;57.996;56.290;2022-11-11T11:31:40;6.97;;;2.60;;
70663;SDS011;58237;57.996;56.290;2022-11-11T11:34:06;8.50;;;3.40;;
70663;SDS011;58237;57.996;56.290;2022-11-11T11:36:32;7.20;;;2.85;;
70663;SDS011;58237;57.996;56.290;2022-11-11T11:38:57;7.47;;;2.67;;
70663;SDS011;58237;57.996;56.290;2022-11-11T11:41:56;8.75;;;3.05;;
70663;SDS011;58237;57.996;56.290;2022-11-11T11:44:30;6.68;;;2.90;;
70663;SDS011;58237;57.996;56.290;2022-11-11T11:47:09;8.57;;;3.47;;
70663;SDS011;58237;57.996;56.290;2022-11-11T11:49:41;7.25;;;2.83;;
70663;SDS011;58237;57.996;56.290;2022-11-11T11:52:14;8.70;;;3.15;;
70663;SDS011;58237;57.996;56.290;2022-11-11T11:57:25;7.35;;;2.60;;
70663;SDS011;58237;57.996;56.290;2022-11-11T11:59:54;8.02;;;2.63;;
70663;SDS011;58237;57.996;56.290;2022-11-11T12:12:49;8.30;;;3.70;;
70663;SDS011;58237;57.996;56.290;2022-11-11T12:23:16;5.22;;;2.30;;
70663;SDS011;58237;57.996;56.290;2022-11-11T12:28:25;6.80;;;2.20;;
70663;SDS011;58237;57.996;56.290;2022-11-11T12:30:58;6.72;;;2.42;;
70663;SDS011;58237;57.996;56.290;2022-11-11T12:36:12;6.22;;;2.35;;
70663;SDS011;58237;57.996;56.290;2022-11-11T12:41:17;6.93;;;2.40;;
70663;SDS011;58237;57.996;56.290;2022-11-11T12:44:03;6.43;;;2.50;;
70663;SDS011;58237;57.996;56.290;2022-11-11T12:54:23;6.40;;;2.30;;
70663;SDS011;58237;57.996;56.290;2022-11-11T12:57:10;6.20;;;2.85;;
70663;SDS011;58237;57.996;56.290;2022-11-11T12:59:57;6.35;;;2.60;;
70663;SDS011;58237;57.996;56.290;2022-11-11T13:12:12;8.23;;;3.35;;
70663;SDS011;58237;57.996;56.290;2022-11-11T13:14:46;6.43;;;2.92;;
70663;SDS011;58237;57.996;56.290;2022-11-11T13:17:13;7.93;;;3.05;;
70663;SDS011;58237;57.996;56.290;2022-11-11T13:19:43;7.90;;;3.03;;
70663;SDS011;58237;57.996;56.290;2022-11-11T13:24:35;6.10;;;2.55;;
70663;SDS011;58237;57.996;56.290;2022-11-11T13:27:05;10.52;;;4.72;;
70663;SDS011;58237;57.996;56.290;2022-11-11T13:32:16;9.50;;;3.30;;
70663;SDS011;58237;57.996;56.290;2022-11-11T13:34:43;6.82;;;3.03;;
70663;SDS011;58237;57.996;56.290;2022-11-11T13:37:14;7.68;;;2.90;;
70663;SDS011;58237;57.996;56.290;2022-11-11T13:39:44;8.57;;;3.97;;
70663;SDS011;58237;57.996;56.290;2022-11-11T13:42:12;11.32;;;4.88;;
70663;SDS011;58237;57.996;56.290;2022-11-11T13:44:50;7.28;;;3.35;;
70663;SDS011;58237;57.996;56.290;2022-11-11T13:47:28;7.78;;;3.47;;
70663;SDS011;58237;57.996;56.290;2022-11-11T13:50:02;6.50;;;2.63;;
70663;SDS011;58237;57.996;56.290;2022-11-11T13:52:36;9.83;;;3.07;;
70663;SDS011;58237;57.996;56.290;2022-11-11T13:55:08;8.15;;;3.40;;
70663;SDS011;58237;57.996;56.290;2022-11-11T13:57:48;7.40;;;3.05;;
70663;SDS011;58237;57.996;56.290;2022-11-11T14:02:43;7.55;;;3.53;;
70663;SDS011;58237;57.996;56.290;2022-11-11T14:12:40;8.77;;;3.35;;
70663;SDS011;58237;57.996;56.290;2022-11-11T14:17:50;6.97;;;3.05;;
70663;SDS011;58237;57.996;56.290;2022-11-11T14:23:57;7.22;;;3.05;;
70663;SDS011;58237;57.996;56.290;2022-11-11T14:26:38;7.50;;;3.42;;
70663;SDS011;58237;57.996;56.290;2022-11-11T14:40:57;6.45;;;2.85;;
70663;SDS011;58237;57.996;56.290;2022-11-11T14:43:42;8.68;;;3.10;;
70663;SDS011;58237;57.996;56.290;2022-11-11T14:46:08;9.10;;;3.47;;
70663;SDS011;58237;57.996;56.290;2022-11-11T14:51:48;9.55;;;3.15;;
70663;SDS011;58237;57.996;56.290;2022-11-11T14:54:16;7.28;;;2.88;;
70663;SDS011;58237;57.996;56.290;2022-11-11T14:56:57;6.78;;;2.60;;
70663;SDS011;58237;57.996;56.290;2022-11-11T14:59:24;5.13;;;2.30;;
70663;SDS011;58237;57.996;56.290;2022-11-11T15:01:54;10.50;;;3.60;;
70663;SDS011;58237;57.996;56.290;2022-11-11T15:04:20;7.55;;;3.60;;
70663;SDS011;58237;57.996;56.290;2022-11-11T15:06:47;9.18;;;3.65;;
70663;SDS011;58237;57.996;56.290;2022-11-11T15:19:51;9.30;;;3.63;;
70663;SDS011;58237;57.996;56.290;2022-11-11T15:22:32;8.93;;;3.10;;
70663;SDS011;58237;57.996;56.290;2022-11-11T15:25:06;7.30;;;3.42;;
70663;SDS011;58237;57.996;56.290;2022-11-11T15:27:37;7.28;;;2.88;;
70663;SDS011;58237;57.996;56.290;2022-11-11T15:30:08;7.28;;;3.35;;
70663;SDS011;58237;57.996;56.290;2022-11-11T15:35:18;9.10;;;4.28;;
70663;SDS011;58237;57.996;56.290;2022-11-11T15:37:56;8.77;;;4.03;;
70663;SDS011;58237;57.996;56.290;2022-11-11T15:40:23;9.23;;;4.55;;
70663;SDS011;58237;57.996;56.290;2022-11-11T15:42:49;7.18;;;3.03;;
70663;SDS011;58237;57.996;56.290;2022-11-11T15:47:43;9.43;;;3.85;;
70663;SDS011;58237;57.996;56.290;2022-11-11T15:50:15;10.15;;;4.10;;
70663;SDS011;58237;57.996;56.290;2022-11-11T15:52:40;7.88;;;4.00;;
70663;SDS011;58237;57.996;56.290;2022-11-11T15:55:18;9.68;;;4.38;;
70663;SDS011;58237;57.996;56.290;2022-11-11T15:57:44;7.55;;;3.20;;
70663;SDS011;58237;57.996;56.290;2022-11-11T16:00:24;7.50;;;3.15;;
70663;SDS011;58237;57.996;56.290;2022-11-11T16:02:53;8.18;;;2.80;;
70663;SDS011;58237;57.996;56.290;2022-11-11T16:05:24;8.00;;;3.22;;
70663;SDS011;58237;57.996;56.290;2022-11-11T16:07:50;8.55;;;3.58;;
70663;SDS011;58237;57.996;56.290;2022-11-11T16:10:35;11.57;;;5.20;;
70663;SDS011;58237;57.996;56.290;2022-11-11T16:13:10;9.07;;;3.85;;
70663;SDS011;58237;57.996;56.290;2022-11-11T16:18:02;10.93;;;3.88;;
70663;SDS011;58237;57.996;56.290;2022-11-11T16:20:32;9.73;;;3.97;;
70663;SDS011;58237;57.996;56.290;2022-11-11T16:23:00;8.18;;;3.30;;
70663;SDS011;58237;57.996;56.290;2022-11-11T16:25:27;9.30;;;3.97;;
70663;SDS011;58237;57.996;56.290;2022-11-11T16:27:53;11.10;;;5.70;;
70663;SDS011;58237;57.996;56.290;2022-11-11T16:30:31;11.85;;;4.45;;
70663;SDS011;58237;57.996;56.290;2022-11-11T16:32:57;9.68;;;3.65;;
70663;SDS011;58237;57.996;56.290;2022-11-11T16:35:31;12.93;;;5.50;;
70663;SDS011;58237;57.996;56.290;2022-11-11T16:37:59;12.10;;;4.30;;
70663;SDS011;58237;57.996;56.290;2022-11-11T16:40:33;11.38;;;4.78;;
70663;SDS011;58237;57.996;56.290;2022-11-11T16:46:00;11.10;;;4.55;;
70663;SDS011;58237;57.996;56.290;2022-11-11T16:51:01;14.23;;;5.88;;
70663;SDS011;58237;57.996;56.290;2022-11-11T16:53:28;10.23;;;4.95;;